Time;durP1;ratioP1;P1;durP2;ratioP2;P2;SDS_P1;SDS_P2;PMS_P1;PMS_P2;Temp;Humidity;BMP_temperature;BMP_pressure;BME280_temperature;BME280_humidity;BME280_pressure;Samples;Min_cycle;Max_cycle;Signal;HPM_P1;HPM_P2
2024/01/30 00:00:44;;;;;;;9.57;5.45;;;;;;;0.92;100.00;98569.09;5032134;28;20052;-58
2024/01/30 00:03:11;;;;;;;9.50;5.10;;;;;;;0.80;100.00;98565.91;5035805;28;20084;-58
2024/01/30 00:05:38;;;;;;;9.40;5.13;;;;;;;0.61;100.00;98566.97;5024934;28;20053;-57
2024/01/30 00:08:05;;;;;;;9.30;4.75;;;;;;;0.52;100.00;98571.44;5035777;28;20041;-58
2024/01/30 00:10:32;;;;;;;10.45;6.38;;;;;;;0.60;100.00;98574.16;5033667;28;20098;-57
2024/01/30 00:12:58;;;;;;;8.95;5.68;;;;;;;0.78;100.00;98565.25;5041935;28;20052;-56
2024/01/30 00:15:25;;;;;;;11.18;5.85;;;;;;;0.97;100.00;98563.31;5035244;28;20746;-57
2024/01/30 00:17:52;;;;;;;33.30;13.68;;;;;;;1.02;100.00;98569.84;5042532;28;20068;-58
2024/01/30 00:20:20;;;;;;;10.95;5.93;;;;;;;1.13;100.00;98565.19;5039133;28;20069;-57
2024/01/30 00:22:47;;;;;;;63.05;24.83;;;;;;;1.22;100.00;98577.56;5040768;28;20056;-58
2024/01/30 00:25:14;;;;;;;21.42;9.13;;;;;;;1.32;100.00;98580.09;5038964;28;20037;-58
2024/01/30 00:27:40;;;;;;;33.92;11.88;;;;;;;1.06;100.00;98574.88;5041984;28;20036;-55
2024/01/30 00:30:08;;;;;;;10.93;5.68;;;;;;;0.90;100.00;98571.97;5043173;28;20122;-58
2024/01/30 00:32:35;;;;;;;11.52;5.65;;;;;;;0.86;100.00;98573.28;5038420;28;20064;-56
2024/01/30 00:35:01;;;;;;;11.05;6.35;;;;;;;0.80;100.00;98573.91;5035506;28;20037;-57
2024/01/30 00:37:28;;;;;;;10.48;5.30;;;;;;;0.82;100.00;98579.06;5041514;28;20056;-55
2024/01/30 00:39:55;;;;;;;9.48;5.55;;;;;;;1.06;100.00;98581.00;5042493;28;20086;-54
2024/01/30 00:42:23;;;;;;;7.20;4.60;;;;;;;1.19;100.00;98582.41;5029534;28;20096;-54
2024/01/30 00:44:50;;;;;;;9.00;4.95;;;;;;;1.21;100.00;98581.22;5032745;28;20121;-55
2024/01/30 00:47:16;;;;;;;9.95;4.38;;;;;;;1.32;100.00;98576.63;5034266;28;20119;-54
2024/01/30 00:49:43;;;;;;;6.65;3.55;;;;;;;1.50;100.00;98571.97;5037573;28;20049;-56
2024/01/30 00:52:10;;;;;;;7.20;4.18;;;;;;;1.54;100.00;98572.47;5034954;28;20492;-57
2024/01/30 00:54:37;;;;;;;6.43;4.00;;;;;;;1.39;100.00;98575.78;5036734;28;20131;-57
2024/01/30 00:57:03;;;;;;;8.40;4.07;;;;;;;1.49;100.00;98575.66;5050400;28;20037;-56
2024/01/30 00:59:30;;;;;;;7.88;3.65;;;;;;;1.61;100.00;98568.16;5042022;28;20487;-54
2024/01/30 01:01:56;;;;;;;8.55;4.10;;;;;;;1.76;100.00;98572.84;5034088;28;20047;-54
2024/01/30 01:04:23;;;;;;;7.95;3.78;;;;;;;1.83;100.00;98575.72;5042506;28;20067;-57
2024/01/30 01:06:50;;;;;;;7.88;3.80;;;;;;;1.69;100.00;98573.50;5041819;28;20049;-55
2024/01/30 01:09:17;;;;;;;6.95;4.20;;;;;;;1.67;100.00;98574.69;5033689;28;20072;-54
2024/01/30 01:11:43;;;;;;;6.70;3.80;;;;;;;1.57;100.00;98569.50;5023840;28;20063;-54
2024/01/30 01:14:10;;;;;;;8.95;3.63;;;;;;;1.47;100.00;98579.50;5027982;28;20064;-53
2024/01/30 01:16:37;;;;;;;6.80;3.42;;;;;;;1.53;100.00;98581.50;5038145;28;20064;-53
2024/01/30 01:19:04;;;;;;;7.68;3.90;;;;;;;1.52;100.00;98577.16;5044195;28;20045;-53
2024/01/30 01:21:31;;;;;;;5.40;3.20;;;;;;;1.55;100.00;98579.50;5039306;28;20033;-53
2024/01/30 01:23:57;;;;;;;6.40;3.88;;;;;;;1.54;100.00;98569.81;5034625;28;20067;-53
2024/01/30 01:26:24;;;;;;;8.68;4.30;;;;;;;1.59;100.00;98569.31;5041385;28;20047;-55
2024/01/30 01:28:50;;;;;;;7.32;4.25;;;;;;;1.52;100.00;98575.31;5037650;28;20045;-58
2024/01/30 01:31:17;;;;;;;6.32;3.88;;;;;;;1.40;100.00;98574.78;5034285;28;20049;-57
2024/01/30 01:33:45;;;;;;;7.00;4.10;;;;;;;1.44;100.00;98567.31;5047191;28;20044;-59
2024/01/30 01:36:13;;;;;;;8.40;3.45;;;;;;;1.52;100.00;98569.97;5038831;28;20440;-57
2024/01/30 01:38:40;;;;;;;6.53;3.38;;;;;;;1.71;100.00;98570.69;5042067;28;20056;-58
2024/01/30 01:41:06;;;;;;;7.20;3.63;;;;;;;1.75;100.00;98572.03;5029509;28;20045;-57
2024/01/30 01:43:33;;;;;;;5.75;3.00;;;;;;;1.88;100.00;98573.38;5039887;28;20047;-54
2024/01/30 01:45:59;;;;;;;6.18;3.75;;;;;;;1.74;100.00;98567.69;5033762;28;20045;-56
2024/01/30 01:48:26;;;;;;;9.10;3.78;;;;;;;1.61;100.00;98562.81;5035297;28;20405;-56
2024/01/30 01:50:53;;;;;;;6.88;3.47;;;;;;;1.65;100.00;98561.50;5036108;28;20442;-54
2024/01/30 01:53:21;;;;;;;6.40;3.88;;;;;;;1.85;100.00;98560.34;5036766;28;20646;-56
2024/01/30 01:55:48;;;;;;;6.85;4.22;;;;;;;1.77;100.00;98562.00;5038045;28;20045;-57
2024/01/30 01:58:16;;;;;;;7.45;3.83;;;;;;;1.44;100.00;98561.97;5040854;28;20072;-56
2024/01/30 02:00:42;;;;;;;7.63;4.20;;;;;;;1.27;100.00;98564.59;5033975;28;20072;-56
2024/01/30 02:03:11;;;;;;;6.95;3.75;;;;;;;1.21;100.00;98567.88;5035711;28;20044;-55
2024/01/30 02:05:39;;;;;;;7.07;4.15;;;;;;;1.36;100.00;98569.97;5034249;28;20060;-57
2024/01/30 02:08:06;;;;;;;6.65;3.65;;;;;;;1.36;100.00;98568.09;5039083;28;20051;-56
2024/01/30 02:10:34;;;;;;;8.65;3.63;;;;;;;1.23;100.00;98573.06;5038135;28;20117;-58
2024/01/30 02:13:00;;;;;;;8.13;4.43;;;;;;;1.00;100.00;98571.00;5033338;28;20053;-58
2024/01/30 02:15:28;;;;;;;7.47;3.67;;;;;;;0.94;100.00;98571.63;5033155;28;20048;-58
2024/01/30 02:17:55;;;;;;;7.82;4.28;;;;;;;0.77;100.00;98577.72;5038213;28;20048;-58
2024/01/30 02:20:24;;;;;;;6.70;4.60;;;;;;;0.67;100.00;98582.34;5025994;28;20049;-56
2024/01/30 02:22:52;;;;;;;6.25;4.28;;;;;;;0.45;100.00;98581.88;5035968;28;20041;-56
2024/01/30 02:25:19;;;;;;;11.93;4.32;;;;;;;0.41;100.00;98583.19;5030652;28;20036;-57
2024/01/30 02:27:45;;;;;;;7.90;3.90;;;;;;;0.35;100.00;98581.97;5038344;28;20109;-58
2024/01/30 02:30:12;;;;;;;7.68;4.00;;;;;;;0.37;100.00;98581.81;5036650;28;20143;-56
2024/01/30 02:32:39;;;;;;;7.22;3.92;;;;;;;0.37;100.00;98576.50;5029574;28;20068;-56
2024/01/30 02:35:06;;;;;;;7.30;4.05;;;;;;;0.41;100.00;98571.69;5036787;28;20049;-54
2024/01/30 02:37:32;;;;;;;7.93;4.03;;;;;;;0.38;100.00;98584.31;5037833;28;20073;-56
2024/01/30 02:39:59;;;;;;;6.63;3.88;;;;;;;0.30;100.00;98581.63;5030697;28;20049;-56
2024/01/30 02:42:26;;;;;;;7.80;3.78;;;;;;;0.29;100.00;98582.59;5036161;28;20111;-54
2024/01/30 02:44:52;;;;;;;9.60;4.53;;;;;;;0.28;100.00;98582.75;5030971;28;20078;-53
2024/01/30 02:47:18;;;;;;;8.25;4.03;;;;;;;0.36;100.00;98583.66;5028974;28;20041;-55
2024/01/30 02:49:45;;;;;;;8.25;4.13;;;;;;;0.66;100.00;98583.31;5036833;28;20049;-52
2024/01/30 02:52:12;;;;;;;7.35;4.15;;;;;;;0.86;100.00;98583.94;5037937;28;20044;-54
2024/01/30 02:54:38;;;;;;;7.18;4.10;;;;;;;0.99;100.00;98580.00;5038844;28;20048;-55
2024/01/30 02:57:05;;;;;;;10.80;4.38;;;;;;;0.95;100.00;98578.66;5032612;28;20041;-52
2024/01/30 02:59:33;;;;;;;6.80;3.78;;;;;;;0.98;100.00;98572.97;5037572;28;20048;-57
2024/01/30 03:01:59;;;;;;;5.55;3.47;;;;;;;0.96;100.00;98578.47;5042490;28;20041;-56
2024/01/30 03:04:26;;;;;;;7.47;4.07;;;;;;;0.82;100.00;98574.59;5038651;28;20071;-57
2024/01/30 03:06:53;;;;;;;7.18;3.97;;;;;;;0.66;100.00;98579.84;5031078;28;20095;-56
2024/01/30 03:09:19;;;;;;;9.43;4.50;;;;;;;0.52;100.00;98576.75;5030342;28;20041;-54
2024/01/30 03:11:46;;;;;;;6.13;3.83;;;;;;;0.41;100.00;98572.53;5037730;28;20112;-55
2024/01/30 03:14:12;;;;;;;7.28;4.03;;;;;;;0.52;100.00;98574.91;5042020;28;20033;-57
2024/01/30 03:16:39;;;;;;;6.70;3.97;;;;;;;0.65;100.00;98573.66;5034337;28;20168;-55
2024/01/30 03:19:07;;;;;;;6.60;4.20;;;;;;;0.60;100.00;98573.28;5036706;28;20037;-57
2024/01/30 03:21:35;;;;;;;8.48;4.15;;;;;;;0.41;100.00;98567.19;5027921;28;20083;-56
2024/01/30 03:24:01;;;;;;;7.25;4.05;;;;;;;0.19;100.00;98568.53;5035869;28;20075;-55
2024/01/30 03:26:28;;;;;;;9.65;3.97;;;;;;;0.18;100.00;98574.88;5026726;28;20080;-58
2024/01/30 03:28:54;;;;;;;9.57;4.15;;;;;;;0.33;100.00;98567.97;5033604;28;20120;-58
2024/01/30 03:31:21;;;;;;;7.45;3.67;;;;;;;0.28;100.00;98566.75;5044037;28;20037;-57
2024/01/30 03:33:48;;;;;;;8.63;4.10;;;;;;;0.20;100.00;98568.38;5035468;28;20394;-55
2024/01/30 03:36:16;;;;;;;8.88;3.83;;;;;;;0.11;100.00;98566.66;5037819;28;20045;-56
2024/01/30 03:38:42;;;;;;;10.68;4.10;;;;;;;0.06;100.00;98575.09;5036157;28;20107;-56
2024/01/30 03:41:09;;;;;;;9.05;4.00;;;;;;;0.01;100.00;98569.41;5029731;28;20033;-53
2024/01/30 03:43:36;;;;;;;9.35;4.72;;;;;;;-0.12;100.00;98569.78;5035020;28;20041;-56
2024/01/30 03:46:03;;;;;;;8.88;4.35;;;;;;;-0.21;100.00;98565.38;5027485;28;20586;-53
2024/01/30 03:48:30;;;;;;;8.90;3.55;;;;;;;-0.16;100.00;98568.41;5039908;28;20045;-55
2024/01/30 03:50:57;;;;;;;8.23;4.70;;;;;;;-0.12;100.00;98563.66;5043109;28;20036;-55
2024/01/30 03:53:23;;;;;;;6.35;3.80;;;;;;;-0.05;100.00;98567.34;5041483;28;20048;-57
2024/01/30 03:55:50;;;;;;;8.18;4.25;;;;;;;0.06;100.00;98575.09;5044997;28;20120;-53
2024/01/30 03:58:16;;;;;;;5.90;3.83;;;;;;;0.15;100.00;98580.50;5047080;28;20039;-54
2024/01/30 04:00:44;;;;;;;9.30;4.57;;;;;;;0.15;100.00;98578.69;5035873;28;20111;-54
2024/01/30 04:03:11;;;;;;;8.70;4.13;;;;;;;0.09;100.00;98582.78;5032582;28;20043;-53
2024/01/30 04:05:37;;;;;;;7.95;4.00;;;;;;;0.01;100.00;98577.41;5036548;28;20037;-52
2024/01/30 04:08:04;;;;;;;6.97;4.13;;;;;;;-0.07;100.00;98583.47;5042522;28;20057;-54
2024/01/30 04:10:31;;;;;;;8.25;4.00;;;;;;;-0.18;100.00;98571.22;5030249;28;20044;-54
2024/01/30 04:12:57;;;;;;;8.00;4.68;;;;;;;-0.25;100.00;98566.69;5037452;28;20045;-54
2024/01/30 04:15:24;;;;;;;7.18;3.75;;;;;;;-0.19;100.00;98569.56;5040951;28;20060;-53
2024/01/30 04:17:50;;;;;;;7.60;3.78;;;;;;;-0.07;100.00;98567.50;5036221;28;20039;-56
2024/01/30 04:20:17;;;;;;;7.25;4.28;;;;;;;-0.06;100.00;98568.34;5035467;28;20079;-56
2024/01/30 04:22:44;;;;;;;5.60;3.53;;;;;;;-0.01;100.00;98563.38;5038670;28;20048;-57
2024/01/30 04:25:12;;;;;;;7.05;4.00;;;;;;;-0.10;100.00;98565.16;5041797;28;20044;-52
2024/01/30 04:27:39;;;;;;;5.95;3.75;;;;;;;-0.17;100.00;98564.94;5043813;28;20041;-53
2024/01/30 04:30:06;;;;;;;5.78;3.05;;;;;;;-0.10;100.00;98567.81;5043335;28;20697;-55
2024/01/30 04:32:33;;;;;;;8.20;3.83;;;;;;;-0.26;100.00;98560.50;5033086;28;20096;-55
2024/01/30 04:34:59;;;;;;;8.32;4.30;;;;;;;-0.32;100.00;98559.31;5042198;28;20065;-58
2024/01/30 04:37:26;;;;;;;5.90;3.55;;;;;;;-0.35;100.00;98556.09;5039170;28;20633;-56
2024/01/30 04:39:52;;;;;;;7.80;3.45;;;;;;;-0.19;100.00;98564.25;5038804;28;20033;-57
2024/01/30 04:42:19;;;;;;;7.25;3.90;;;;;;;-0.17;100.00;98562.28;5037293;28;20044;-58
2024/01/30 04:44:46;;;;;;;6.88;3.97;;;;;;;-0.17;100.00;98564.94;5041804;28;20034;-58
2024/01/30 04:47:12;;;;;;;7.93;3.90;;;;;;;-0.08;100.00;98565.00;5044501;28;20696;-56
2024/01/30 04:49:39;;;;;;;7.88;4.35;;;;;;;0.00;100.00;98562.41;5035036;28;20700;-56
2024/01/30 04:52:07;;;;;;;8.55;4.10;;;;;;;0.12;100.00;98563.81;5038080;28;20099;-59
2024/01/30 04:54:34;;;;;;;5.63;3.17;;;;;;;0.19;100.00;98557.88;5034542;28;20095;-60
2024/01/30 04:57:02;;;;;;;6.15;3.28;;;;;;;0.24;100.00;98564.44;5038323;28;20041;-60
2024/01/30 04:59:28;;;;;;;8.48;3.97;;;;;;;0.20;100.00;98556.88;5034796;28;20043;-58
2024/01/30 05:01:55;;;;;;;6.32;3.88;;;;;;;0.14;100.00;98568.19;5047382;28;20094;-60
2024/01/30 05:04:22;;;;;;;7.70;4.13;;;;;;;0.07;100.00;98571.44;5036883;28;20041;-59
2024/01/30 05:06:49;;;;;;;10.07;4.20;;;;;;;-0.04;100.00;98572.53;5039577;28;20045;-59
2024/01/30 05:09:15;;;;;;;8.07;4.07;;;;;;;-0.02;100.00;98572.38;5031697;28;20029;-58
2024/01/30 05:11:42;;;;;;;8.38;4.22;;;;;;;0.08;100.00;98566.97;5039534;28;20053;-59
2024/01/30 05:14:09;;;;;;;9.50;3.95;;;;;;;0.06;100.00;98572.44;5041520;28;20083;-58
2024/01/30 05:16:36;;;;;;;7.65;4.55;;;;;;;0.11;100.00;98578.13;5032564;28;20094;-59
2024/01/30 05:19:02;;;;;;;9.02;4.38;;;;;;;0.10;100.00;98573.81;5039391;28;20095;-60
2024/01/30 05:21:29;;;;;;;9.65;4.78;;;;;;;0.34;100.00;98569.63;5038621;28;20583;-59
2024/01/30 05:23:56;;;;;;;9.02;4.55;;;;;;;0.43;100.00;98570.53;5037190;28;20151;-59
2024/01/30 05:26:22;;;;;;;9.25;4.32;;;;;;;0.38;100.00;98572.84;5040309;28;20036;-59
2024/01/30 05:28:49;;;;;;;10.70;5.18;;;;;;;0.31;100.00;98571.78;5041995;28;20045;-58
2024/01/30 05:31:16;;;;;;;9.75;5.10;;;;;;;0.25;100.00;98574.06;5042177;28;20052;-59
2024/01/30 05:33:42;;;;;;;10.38;4.85;;;;;;;0.31;100.00;98575.28;5032669;28;20065;-56
2024/01/30 05:36:12;;;;;;;8.80;5.05;;;;;;;0.28;100.00;98567.59;5041918;28;20033;-58
2024/01/30 05:38:39;;;;;;;9.90;5.13;;;;;;;0.12;100.00;98577.13;5037107;28;20806;-59
2024/01/30 05:41:06;;;;;;;10.63;5.25;;;;;;;-0.02;100.00;98580.34;5040683;28;20408;-58
2024/01/30 05:43:32;;;;;;;12.02;5.88;;;;;;;-0.07;100.00;98587.97;5041747;28;20047;-57
2024/01/30 05:45:59;;;;;;;12.13;5.70;;;;;;;-0.09;100.00;98581.97;5035909;28;20033;-60
2024/01/30 05:48:25;;;;;;;10.38;5.68;;;;;;;-0.18;100.00;98589.06;5031937;28;20041;-56
2024/01/30 05:50:52;;;;;;;9.00;4.93;;;;;;;-0.27;100.00;98585.47;5039433;28;20041;-58
2024/01/30 05:53:19;;;;;;;9.55;5.18;;;;;;;-0.37;100.00;98590.84;5036519;28;20135;-59
2024/01/30 05:55:45;;;;;;;8.25;4.47;;;;;;;-0.24;100.00;98595.81;5038690;28;20528;-58
2024/01/30 05:58:12;;;;;;;11.15;4.53;;;;;;;-0.06;100.00;98589.66;5040651;28;20049;-57
2024/01/30 06:00:39;;;;;;;7.03;4.28;;;;;;;0.03;100.00;98591.38;5037497;28;20049;-58
2024/01/30 06:03:05;;;;;;;8.65;4.70;;;;;;;0.14;100.00;98589.47;5038991;28;20045;-57
2024/01/30 06:05:32;;;;;;;8.07;4.55;;;;;;;0.19;100.00;98595.19;5034025;28;20622;-59
2024/01/30 06:07:58;;;;;;;8.13;3.95;;;;;;;0.15;100.00;98588.50;5036926;28;20045;-59
2024/01/30 06:10:25;;;;;;;8.82;4.53;;;;;;;0.20;100.00;98594.19;5037550;28;20527;-59
2024/01/30 06:12:51;;;;;;;8.63;4.25;;;;;;;0.27;100.00;98597.06;5038871;28;20507;-57
2024/01/30 06:15:18;;;;;;;8.60;4.57;;;;;;;0.27;100.00;98591.72;5041798;28;20052;-58
2024/01/30 06:17:44;;;;;;;8.93;4.03;;;;;;;0.18;100.00;98593.50;5032858;28;20045;-59
2024/01/30 06:20:11;;;;;;;8.20;4.60;;;;;;;0.08;100.00;98594.41;5040006;28;20486;-60
2024/01/30 06:22:38;;;;;;;9.88;3.97;;;;;;;0.13;100.00;98601.94;5037249;28;20041;-58
2024/01/30 06:25:04;;;;;;;8.65;3.78;;;;;;;0.23;100.00;98596.53;5030334;28;20033;-59
2024/01/30 06:27:31;;;;;;;7.22;3.85;;;;;;;0.33;100.00;98597.28;5039292;28;20048;-57
2024/01/30 06:29:57;;;;;;;5.97;3.90;;;;;;;0.37;100.00;98595.97;5029182;28;20041;-60
2024/01/30 06:32:24;;;;;;;6.40;3.70;;;;;;;0.46;100.00;98599.53;5039228;28;20065;-58
2024/01/30 06:34:51;;;;;;;7.18;4.30;;;;;;;0.62;100.00;98603.28;5044249;28;20381;-60
2024/01/30 06:37:18;;;;;;;7.55;3.92;;;;;;;0.70;100.00;98595.34;5041355;28;20045;-60
2024/01/30 06:39:44;;;;;;;7.85;4.10;;;;;;;0.77;100.00;98607.06;5032860;28;20600;-60
2024/01/30 06:42:11;;;;;;;7.32;5.18;;;;;;;0.61;100.00;98597.13;5043177;28;20037;-58
2024/01/30 06:44:38;;;;;;;7.60;4.22;;;;;;;0.50;100.00;98597.38;5042615;28;20048;-60
2024/01/30 06:47:05;;;;;;;8.82;4.40;;;;;;;0.61;100.00;98599.81;5043285;28;20037;-59
2024/01/30 06:49:31;;;;;;;8.20;5.05;;;;;;;0.52;100.00;98600.75;5038512;28;20049;-59
2024/01/30 06:51:58;;;;;;;8.93;4.10;;;;;;;0.52;100.00;98600.75;5036070;28;20049;-60
2024/01/30 06:54:24;;;;;;;7.45;3.65;;;;;;;0.52;100.00;98603.41;5035827;28;20045;-59
2024/01/30 06:56:51;;;;;;;7.53;3.75;;;;;;;0.57;100.00;98608.25;5037062;28;20042;-59
2024/01/30 06:59:17;;;;;;;6.32;3.72;;;;;;;0.53;100.00;98607.75;5032624;28;20052;-59
2024/01/30 07:01:44;;;;;;;7.05;4.00;;;;;;;0.44;100.00;98606.03;5030014;28;20617;-58
2024/01/30 07:04:11;;;;;;;9.35;4.00;;;;;;;0.44;100.00;98609.50;5038226;28;20055;-57
2024/01/30 07:06:37;;;;;;;6.95;3.58;;;;;;;0.49;100.00;98606.38;5036734;28;20055;-59
2024/01/30 07:09:05;;;;;;;7.65;4.30;;;;;;;0.56;100.00;98606.59;5040841;28;20062;-58
2024/01/30 07:11:32;;;;;;;7.60;4.53;;;;;;;0.50;100.00;98603.56;5040118;28;20053;-58
2024/01/30 07:13:58;;;;;;;7.38;4.60;;;;;;;0.45;100.00;98605.88;5033622;28;20080;-59
2024/01/30 07:16:25;;;;;;;7.78;4.55;;;;;;;0.44;100.00;98608.69;5045534;28;20116;-57
2024/01/30 07:18:51;;;;;;;9.95;4.45;;;;;;;0.56;100.00;98606.59;5039222;28;20048;-58
2024/01/30 07:21:18;;;;;;;8.68;4.32;;;;;;;0.47;100.00;98605.69;5035154;28;20408;-59
2024/01/30 07:23:45;;;;;;;7.95;4.55;;;;;;;0.50;100.00;98600.91;5050975;28;20683;-60
2024/01/30 07:26:11;;;;;;;9.38;4.95;;;;;;;0.41;100.00;98601.00;5037192;28;20052;-59
2024/01/30 07:28:38;;;;;;;11.23;6.07;;;;;;;0.37;100.00;98597.81;5040923;28;20052;-59
2024/01/30 07:31:06;;;;;;;12.48;6.22;;;;;;;0.43;100.00;98602.50;5039799;28;20488;-60
2024/01/30 07:33:33;;;;;;;11.25;6.00;;;;;;;0.42;100.00;98603.50;5042732;28;20036;-60
2024/01/30 07:35:59;;;;;;;10.45;5.65;;;;;;;0.36;100.00;98602.28;5043072;28;20036;-57
2024/01/30 07:38:26;;;;;;;11.40;6.18;;;;;;;0.39;100.00;98603.81;5035867;28;20037;-58
2024/01/30 07:40:52;;;;;;;16.65;7.65;;;;;;;0.47;100.00;98611.88;5035254;28;20049;-59
2024/01/30 07:43:20;;;;;;;12.15;6.60;;;;;;;0.60;100.00;98614.13;5033437;28;20415;-59
2024/01/30 07:45:47;;;;;;;9.20;5.57;;;;;;;0.58;100.00;98615.25;5037071;28;20419;-59
2024/01/30 07:48:13;;;;;;;8.63;5.05;;;;;;;0.60;100.00;98613.28;5039109;28;20144;-60
2024/01/30 07:50:40;;;;;;;7.18;4.40;;;;;;;0.66;100.00;98612.63;5036250;28;20041;-59
2024/01/30 07:53:07;;;;;;;10.77;4.30;;;;;;;0.77;100.00;98620.38;5042568;28;20540;-59
2024/01/30 07:55:33;;;;;;;7.93;4.40;;;;;;;0.87;100.00;98622.94;5033302;28;20040;-57
2024/01/30 07:58:00;;;;;;;11.10;4.90;;;;;;;1.01;100.00;98623.34;5032196;28;20079;-59
2024/01/30 08:00:28;;;;;;;8.18;4.18;;;;;;;1.14;100.00;98610.38;5036304;28;20048;-57
2024/01/30 08:02:55;;;;;;;8.10;4.25;;;;;;;1.25;100.00;98614.59;5040476;28;20044;-60
2024/01/30 08:05:23;;;;;;;9.13;4.93;;;;;;;1.29;100.00;98610.63;5036741;28;20041;-49
2024/01/30 08:07:50;;;;;;;6.55;3.58;;;;;;;1.48;100.00;98615.84;5028747;28;20036;-52
2024/01/30 08:10:18;;;;;;;8.32;4.32;;;;;;;1.52;100.00;98620.69;5033230;28;20063;-51
2024/01/30 08:12:45;;;;;;;8.90;4.80;;;;;;;1.52;100.00;98617.19;5044791;28;20524;-48
2024/01/30 08:15:13;;;;;;;8.23;4.88;;;;;;;1.53;100.00;98614.38;5037906;28;20060;-51
2024/01/30 08:17:39;;;;;;;8.82;4.55;;;;;;;1.60;100.00;98619.91;5038276;28;20068;-50
2024/01/30 08:20:08;;;;;;;10.50;4.90;;;;;;;1.66;100.00;98613.06;5034945;28;20052;-52
2024/01/30 08:22:35;;;;;;;8.90;4.63;;;;;;;1.62;100.00;98611.72;5038015;28;20486;-50
2024/01/30 08:25:01;;;;;;;9.05;5.20;;;;;;;1.62;100.00;98609.88;5028431;28;20051;-51
2024/01/30 08:27:28;;;;;;;9.38;5.10;;;;;;;1.61;100.00;98610.03;5039149;28;20099;-53
2024/01/30 08:29:55;;;;;;;12.75;5.88;;;;;;;1.70;100.00;98617.09;5035393;28;20650;-48
2024/01/30 08:32:21;;;;;;;8.68;5.45;;;;;;;1.74;100.00;98617.59;5039301;28;20047;-61
2024/01/30 08:34:48;;;;;;;9.38;4.95;;;;;;;1.84;100.00;98612.91;5035401;28;20052;-60
2024/01/30 08:37:16;;;;;;;10.30;5.25;;;;;;;1.92;100.00;98618.25;5041014;28;20107;-61
2024/01/30 08:39:46;;;;;;;9.07;4.95;;;;;;;1.99;100.00;98613.09;5032792;28;20053;-61
2024/01/30 08:42:12;;;;;;;9.27;4.75;;;;;;;2.12;100.00;98617.97;5044544;28;20041;-63
2024/01/30 08:44:39;;;;;;;8.15;4.72;;;;;;;2.25;100.00;98620.13;5035187;28;20072;-62
2024/01/30 08:47:05;;;;;;;11.88;5.38;;;;;;;2.42;100.00;98617.44;5035412;28;20060;-64
2024/01/30 08:49:32;;;;;;;10.32;5.63;;;;;;;2.54;100.00;98618.78;5040954;28;20047;-61
2024/01/30 08:51:59;;;;;;;9.73;5.88;;;;;;;2.72;100.00;98625.75;5045642;28;20094;-61
2024/01/30 08:54:26;;;;;;;11.23;5.70;;;;;;;2.95;100.00;98623.19;5045549;28;20036;-63
2024/01/30 08:56:53;;;;;;;12.52;5.45;;;;;;;3.11;100.00;98627.69;5034347;28;20033;-60
2024/01/30 08:59:19;;;;;;;9.93;4.60;;;;;;;3.27;100.00;98628.63;5035561;28;20536;-67
2024/01/30 09:01:46;;;;;;;9.77;4.57;;;;;;;3.46;100.00;98627.34;5039734;28;20091;-65
2024/01/30 09:04:29;;;;;;;9.82;4.50;;;;;;;3.73;100.00;98627.06;5033255;28;20038;-62
2024/01/30 09:06:55;;;;;;;12.27;4.47;;;;;;;3.90;100.00;98630.47;5043108;28;20038;-67
2024/01/30 09:09:22;;;;;;;8.35;4.43;;;;;;;4.10;100.00;98630.00;5037360;28;20041;-62
2024/01/30 09:11:48;;;;;;;7.55;4.57;;;;;;;4.23;100.00;98630.22;5038178;28;20045;-62
2024/01/30 09:14:15;;;;;;;8.23;4.30;;;;;;;4.35;100.00;98636.00;5046120;28;20216;-62
2024/01/30 09:16:42;;;;;;;9.00;4.53;;;;;;;4.56;100.00;98637.16;5036808;28;20049;-65
2024/01/30 09:19:08;;;;;;;8.85;3.83;;;;;;;4.79;100.00;98633.63;5039434;28;20053;-63
2024/01/30 09:21:35;;;;;;;8.40;4.45;;;;;;;4.95;100.00;98629.91;5032361;28;20048;-63
2024/01/30 09:24:05;;;;;;;8.02;3.75;;;;;;;5.07;100.00;98633.81;5032510;28;20047;-62
2024/01/30 09:26:32;;;;;;;9.90;4.35;;;;;;;5.19;100.00;98639.53;5048258;28;20063;-63
2024/01/30 09:28:58;;;;;;;8.52;4.22;;;;;;;5.31;100.00;98639.91;5039298;28;20507;-63
2024/01/30 09:31:25;;;;;;;8.75;4.55;;;;;;;5.44;100.00;98631.19;5039313;28;20615;-63
2024/01/30 09:33:53;;;;;;;8.30;3.53;;;;;;;5.55;100.00;98637.94;5041600;28;20050;-62
2024/01/30 09:36:20;;;;;;;6.82;3.90;;;;;;;5.69;100.00;98638.94;5037564;28;20037;-61
2024/01/30 09:38:47;;;;;;;7.13;4.05;;;;;;;5.80;100.00;98631.41;5034219;28;20049;-61
2024/01/30 09:41:15;;;;;;;7.57;3.58;;;;;;;5.92;100.00;98632.56;5035979;28;20037;-63
2024/01/30 09:43:48;;;;;;;5.78;3.58;;;;;;;5.88;100.00;98633.97;5045803;28;20049;-61
2024/01/30 09:46:17;;;;;;;6.15;3.75;;;;;;;5.89;100.00;98641.00;5043478;28;20045;-63
2024/01/30 09:48:47;;;;;;;6.70;3.67;;;;;;;6.02;100.00;98636.78;5034737;28;20068;-60
2024/01/30 09:51:16;;;;;;;6.70;3.10;;;;;;;6.11;100.00;98639.19;5036841;28;20167;-64
2024/01/30 09:53:46;;;;;;;7.18;3.80;;;;;;;6.18;100.00;98644.66;5037743;28;20681;-66
2024/01/30 09:56:12;;;;;;;7.88;3.83;;;;;;;6.34;100.00;98650.81;5037794;28;20048;-62
2024/01/30 09:58:42;;;;;;;9.35;3.53;;;;;;;6.57;100.00;98649.75;5038441;28;20052;-63
2024/01/30 10:01:09;;;;;;;8.32;4.07;;;;;;;6.69;100.00;98652.72;5032133;28;20037;-63
2024/01/30 10:03:36;;;;;;;7.47;3.58;;;;;;;6.79;100.00;98657.78;5042143;28;20049;-66
2024/01/30 10:06:02;;;;;;;7.70;3.80;;;;;;;6.98;100.00;98648.19;5041774;28;20144;-66
2024/01/30 10:08:29;;;;;;;11.15;4.05;;;;;;;7.10;98.22;98654.69;5042481;28;20049;-66
2024/01/30 10:10:56;;;;;;;11.20;4.57;;;;;;;7.06;95.95;98647.19;5041413;28;20032;-62
2024/01/30 10:13:25;;;;;;;8.90;4.15;;;;;;;7.05;96.28;98649.06;5037420;28;20143;-64
2024/01/30 10:15:53;;;;;;;7.75;4.35;;;;;;;7.09;97.40;98649.50;5044094;28;20095;-59
2024/01/30 10:18:19;;;;;;;8.18;3.90;;;;;;;7.12;97.50;98644.53;5040749;28;20042;-61
2024/01/30 10:20:46;;;;;;;10.50;3.80;;;;;;;7.24;94.84;98644.84;5036282;28;20732;-63
2024/01/30 10:23:13;;;;;;;11.25;3.35;;;;;;;7.45;93.78;98644.94;5038077;28;20048;-62
2024/01/30 10:25:40;;;;;;;7.55;3.50;;;;;;;7.54;89.88;98644.56;5026292;28;22309;-62
2024/01/30 10:28:06;;;;;;;5.10;2.60;;;;;;;7.67;86.92;98635.69;5026190;28;20143;-62
2024/01/30 10:30:33;;;;;;;8.98;3.40;;;;;;;7.83;89.44;98639.06;5017398;28;20048;-61
2024/01/30 10:33:00;;;;;;;5.93;2.83;;;;;;;7.90;90.05;98634.53;5023786;28;20059;-62
2024/01/30 10:35:26;;;;;;;5.45;2.70;;;;;;;7.88;87.22;98635.75;5021843;28;20048;-61
2024/01/30 10:37:57;;;;;;;5.57;2.78;;;;;;;8.19;83.45;98631.69;5039578;28;20543;-61
2024/01/30 10:40:27;;;;;;;4.90;2.60;;;;;;;8.39;80.89;98631.69;5040476;28;20036;-61
2024/01/30 10:42:55;;;;;;;5.75;2.30;;;;;;;8.42;80.19;98628.59;5032524;28;20063;-60
2024/01/30 10:45:27;;;;;;;6.18;2.60;;;;;;;8.57;79.43;98630.28;5034850;28;20048;-62
2024/01/30 10:47:58;;;;;;;6.32;2.60;;;;;;;8.54;78.90;98636.94;5033332;28;20496;-64
2024/01/30 10:50:25;;;;;;;5.20;2.50;;;;;;;8.55;77.42;98635.88;5038906;28;20465;-60
2024/01/30 10:52:54;;;;;;;7.18;2.60;;;;;;;8.47;78.78;98638.75;5039601;28;20283;-60
2024/01/30 10:55:21;;;;;;;6.80;3.00;;;;;;;8.57;77.68;98633.81;5043754;28;20037;-61
2024/01/30 10:57:49;;;;;;;5.63;2.47;;;;;;;8.44;77.87;98629.19;5024979;28;20052;-62
2024/01/30 11:00:16;;;;;;;6.63;2.67;;;;;;;8.36;78.56;98629.41;5030098;28;20037;-60
2024/01/30 11:02:47;;;;;;;5.68;2.50;;;;;;;8.38;79.04;98619.25;5030402;28;20052;-61
2024/01/30 11:05:15;;;;;;;4.40;2.50;;;;;;;8.36;79.18;98615.91;5040985;28;20073;-61
2024/01/30 11:07:42;;;;;;;6.10;2.20;;;;;;;8.41;80.60;98620.69;5037315;28;21043;-61
2024/01/30 11:10:12;;;;;;;5.53;2.35;;;;;;;8.49;80.22;98623.19;5029781;28;20044;-61
2024/01/30 11:12:40;;;;;;;5.13;2.50;;;;;;;8.63;79.81;98628.63;5038468;28;20048;-61
2024/01/30 11:15:13;;;;;;;6.38;2.70;;;;;;;8.73;80.28;98623.63;5042855;28;20037;-62
2024/01/30 11:18:00;;;;;;;5.60;2.63;;;;;;;8.89;79.43;98624.25;5034433;28;20064;-61
2024/01/30 11:20:32;;;;;;;9.15;2.88;;;;;;;9.07;79.04;98632.50;5029796;28;20062;-61
2024/01/30 11:22:59;;;;;;;;;;;;;;;9.22;79.20;98624.16;5039000;28;20192;-61
2024/01/30 11:25:26;;;;;;;10.32;2.83;;;;;;;9.33;78.74;98619.97;5039959;28;19986;-62
2024/01/30 11:27:54;;;;;;;10.43;2.72;;;;;;;9.41;78.83;98626.19;5042838;28;20064;-62
2024/01/30 11:30:25;;;;;;;8.85;2.90;;;;;;;9.49;78.98;98626.78;5043269;28;20102;-62